createdAt,value
2019-03-06T00:01:09.258Z,13.03
2019-03-06T00:03:38.579Z,15.57
2019-03-06T00:06:16.437Z,14.13
2019-03-06T00:08:57.220Z,18.03
2019-03-06T00:11:26.612Z,20.57
2019-03-06T00:13:55.980Z,21.90
2019-03-06T00:16:25.312Z,22.50
2019-03-06T00:18:54.619Z,25.87
2019-03-06T00:21:24.063Z,24.03
2019-03-06T00:23:53.416Z,25.43
2019-03-06T00:26:22.863Z,26.27
2019-03-06T00:28:52.213Z,25.93
2019-03-06T00:31:21.540Z,23.60
2019-03-06T00:34:10.772Z,22.37
2019-03-06T00:36:40.111Z,22.70
2019-03-06T00:41:53.931Z,22.03
2019-03-06T00:44:23.381Z,21.27
2019-03-06T00:46:52.736Z,17.40
2019-03-06T00:49:22.069Z,19.37
2019-03-06T00:51:51.408Z,25.57
2019-03-06T00:54:20.824Z,23.63
2019-03-06T00:56:50.147Z,23.57
2019-03-06T00:59:19.495Z,20.73
2019-03-06T01:01:48.848Z,21.97
2019-03-06T01:04:18.376Z,21.87
2019-03-06T01:06:47.717Z,20.87
2019-03-06T01:09:17.067Z,20.70
2019-03-06T01:11:46.391Z,22.30
2019-03-06T01:14:15.762Z,23.07
2019-03-06T01:16:45.316Z,22.73
2019-03-06T01:19:14.773Z,22.10
2019-03-06T01:21:44.117Z,21.83
2019-03-06T01:24:13.464Z,21.80
2019-03-06T01:26:42.791Z,16.27
2019-03-06T01:29:12.162Z,19.17
2019-03-06T01:31:42.049Z,19.10
2019-03-06T01:34:30.153Z,17.37
2019-03-06T01:37:19.383Z,18.53
2019-03-06T01:40:07.512Z,17.90
2019-03-06T01:42:41.603Z,18.47
2019-03-06T01:45:11.140Z,20.63
2019-03-06T01:47:40.535Z,19.57
2019-03-06T01:52:55.192Z,17.43
2019-03-06T01:55:24.547Z,19.93
2019-03-06T01:57:53.873Z,17.33
2019-03-06T02:00:47.504Z,19.13
2019-03-06T02:03:16.033Z,18.50
2019-03-06T02:05:45.393Z,18.83
2019-03-06T02:11:16.690Z,17.60
2019-03-06T02:13:46.015Z,18.33
2019-03-06T02:16:15.421Z,19.90
2019-03-06T02:18:44.912Z,20.17
2019-03-06T02:21:14.311Z,20.77
2019-03-06T02:23:43.820Z,19.93
2019-03-06T02:26:13.236Z,18.97
2019-03-06T02:28:42.624Z,20.23
2019-03-06T02:31:11.969Z,22.67
2019-03-06T02:33:41.339Z,20.07
2019-03-06T02:36:10.686Z,20.47
2019-03-06T02:38:40.094Z,22.07
2019-03-06T02:41:09.428Z,19.10
2019-03-06T02:43:39.015Z,19.43
2019-03-06T02:46:08.353Z,18.60
2019-03-06T02:48:37.728Z,20.70
2019-03-06T02:51:09.087Z,18.77
2019-03-06T02:53:56.342Z,22.77
2019-03-06T02:56:25.820Z,20.50
2019-03-06T02:59:02.997Z,23.40
2019-03-06T03:01:51.199Z,21.23
2019-03-06T03:04:24.927Z,20.37
2019-03-06T03:07:13.747Z,21.27
2019-03-06T03:09:43.122Z,19.67
2019-03-06T03:12:12.438Z,21.20
2019-03-06T03:14:41.777Z,19.40
2019-03-06T03:17:11.101Z,20.23
2019-03-06T03:19:40.430Z,19.03
2019-03-06T03:22:09.750Z,19.03
2019-03-06T03:24:39.077Z,22.80
2019-03-06T03:27:08.388Z,21.23
2019-03-06T03:29:37.729Z,22.60
2019-03-06T03:32:07.089Z,21.00
2019-03-06T03:34:36.614Z,20.60
2019-03-06T03:37:05.950Z,24.23
2019-03-06T03:39:35.316Z,23.80
2019-03-06T03:42:04.757Z,22.77
2019-03-06T03:44:34.121Z,23.83
2019-03-06T03:47:23.358Z,24.23
2019-03-06T03:49:52.689Z,25.43
2019-03-06T03:52:24.857Z,25.63
2019-03-06T03:54:54.205Z,22.83
2019-03-06T03:57:23.672Z,22.73
2019-03-06T03:59:55.692Z,23.53
2019-03-06T04:02:42.438Z,21.07
2019-03-06T04:05:24.230Z,22.70
2019-03-06T04:07:52.776Z,27.33
2019-03-06T04:10:22.121Z,26.63
2019-03-06T04:12:51.449Z,27.00
2019-03-06T04:15:40.795Z,29.60
2019-03-06T04:18:10.137Z,24.67
2019-03-06T04:20:38.684Z,29.17
2019-03-06T04:23:08.026Z,32.33
2019-03-06T04:25:37.643Z,29.87
2019-03-06T04:28:06.971Z,28.10
2019-03-06T04:30:36.324Z,29.23
2019-03-06T04:33:05.670Z,34.50
2019-03-06T04:35:35.018Z,32.57
2019-03-06T04:38:04.612Z,41.17
2019-03-06T04:40:34.043Z,44.00
2019-03-06T04:43:03.369Z,41.90
2019-03-06T04:45:32.740Z,41.57
2019-03-06T04:48:02.060Z,43.73
2019-03-06T04:50:31.403Z,44.50
2019-03-06T04:53:00.733Z,40.93
2019-03-06T04:55:30.072Z,45.30
2019-03-06T04:57:59.422Z,48.13
2019-03-06T05:00:28.786Z,45.67
2019-03-06T05:02:58.145Z,44.63
2019-03-06T05:05:27.491Z,41.60
2019-03-06T05:07:56.849Z,40.93
2019-03-06T05:10:26.201Z,40.43
2019-03-06T05:12:55.623Z,37.47
2019-03-06T05:15:25.085Z,37.90
2019-03-06T05:18:13.906Z,53.03
2019-03-06T05:20:42.454Z,38.60
2019-03-06T05:23:11.797Z,45.93
2019-03-06T05:25:41.112Z,40.10
2019-03-06T05:28:10.443Z,68.60
2019-03-06T05:30:39.786Z,72.50
2019-03-06T05:33:10.256Z,70.20
2019-03-06T05:36:17.709Z,62.37
2019-03-06T05:39:01.872Z,42.73
2019-03-06T05:41:31.223Z,48.20
2019-03-06T05:44:00.566Z,42.40
2019-03-06T05:46:29.985Z,48.50
2019-03-06T05:48:59.347Z,42.70
2019-03-06T05:51:28.833Z,43.43
2019-03-06T05:53:58.203Z,47.63
2019-03-06T05:56:27.582Z,50.13
2019-03-06T05:58:56.943Z,54.40
2019-03-06T06:01:26.314Z,43.37
2019-03-06T06:03:55.708Z,47.43
2019-03-06T06:06:25.079Z,40.53
2019-03-06T06:08:54.404Z,40.00
2019-03-06T06:11:23.721Z,41.70
2019-03-06T06:13:53.085Z,39.10
2019-03-06T06:16:22.421Z,42.70
2019-03-06T06:18:51.735Z,37.27
2019-03-06T06:21:40.546Z,32.47
2019-03-06T06:24:29.554Z,36.87
2019-03-06T06:26:58.214Z,33.20
2019-03-06T06:29:27.546Z,34.63
2019-03-06T06:31:56.937Z,36.73
2019-03-06T06:34:26.292Z,35.43
2019-03-06T06:36:55.634Z,32.70
2019-03-06T06:39:24.977Z,31.83
2019-03-06T06:41:54.328Z,34.83
2019-03-06T06:44:23.643Z,29.43
2019-03-06T06:46:52.994Z,29.80
2019-03-06T06:49:22.354Z,27.87
2019-03-06T06:52:14.543Z,30.70
2019-03-06T06:55:22.695Z,28.80
2019-03-06T06:58:31.590Z,28.80
2019-03-06T07:01:58.570Z,31.77
2019-03-06T07:05:25.493Z,29.80
2019-03-06T07:08:14.313Z,26.40
2019-03-06T07:11:03.236Z,23.27
2019-03-06T07:13:52.037Z,23.63
2019-03-06T07:16:40.161Z,23.63
2019-03-06T07:19:28.967Z,24.50
2019-03-06T07:22:03.026Z,24.73
2019-03-06T07:24:51.068Z,25.03
2019-03-06T07:33:06.748Z,23.17
2019-03-06T07:36:14.781Z,24.97
2019-03-06T07:38:43.513Z,25.00
2019-03-06T07:41:32.351Z,24.10
2019-03-06T07:44:29.782Z,21.77
2019-03-06T07:47:30.234Z,16.97
2019-03-06T07:50:06.914Z,19.90
2019-03-06T07:52:43.693Z,19.23
2019-03-06T07:55:32.713Z,16.73
2019-03-06T07:58:40.015Z,17.70
2019-03-06T08:01:16.806Z,14.57
2019-03-06T08:04:11.032Z,18.40
2019-03-06T08:07:12.012Z,12.20
2019-03-06T08:09:41.415Z,11.57
2019-03-06T08:12:30.790Z,9.37
2019-03-06T08:15:19.121Z,12.37
2019-03-06T08:18:08.066Z,14.83
2019-03-06T08:20:56.887Z,13.20
2019-03-06T08:23:44.892Z,11.00
2019-03-06T08:26:13.423Z,10.20
2019-03-06T08:28:42.763Z,9.53
2019-03-06T08:31:51.732Z,8.73
2019-03-06T08:34:20.362Z,10.03
2019-03-06T08:36:49.909Z,10.10
2019-03-06T08:39:39.458Z,13.67
2019-03-06T08:42:08.806Z,10.13
2019-03-06T08:44:38.129Z,11.00
2019-03-06T08:47:26.950Z,8.67
2019-03-06T08:50:14.994Z,8.27
2019-03-06T08:53:03.880Z,10.07
2019-03-06T08:55:51.887Z,7.90
2019-03-06T08:58:40.037Z,6.30
2019-03-06T09:01:48.348Z,11.30
2019-03-06T09:04:24.890Z,9.77
2019-03-06T09:07:04.852Z,7.70
2019-03-06T09:09:53.632Z,8.77
2019-03-06T09:12:41.690Z,7.80
2019-03-06T09:18:33.365Z,7.47
2019-03-06T09:21:21.381Z,7.43
2019-03-06T09:24:09.472Z,8.27
2019-03-06T09:26:59.544Z,9.23
2019-03-06T09:30:06.288Z,6.87
2019-03-06T09:32:41.197Z,9.13
2019-03-06T09:35:22.439Z,6.60
2019-03-06T09:38:11.192Z,9.43
2019-03-06T09:41:00.226Z,6.53
2019-03-06T09:43:38.316Z,7.90
2019-03-06T09:46:26.519Z,7.30
2019-03-06T09:49:15.547Z,8.27
2019-03-06T09:52:04.518Z,5.37
2019-03-06T09:54:55.030Z,6.57
2019-03-06T09:58:02.307Z,6.00
2019-03-06T10:00:51.092Z,6.40
2019-03-06T10:03:39.904Z,6.93
2019-03-06T10:08:59.852Z,9.13
2019-03-06T10:11:48.865Z,4.87
2019-03-06T10:14:36.864Z,6.00
2019-03-06T10:17:25.927Z,6.23
2019-03-06T10:19:58.659Z,9.93
2019-03-06T10:22:27.203Z,5.90
2019-03-06T10:24:56.646Z,4.33
2019-03-06T10:27:26.010Z,5.83
2019-03-06T10:29:55.421Z,5.73
2019-03-06T10:32:24.913Z,5.67
2019-03-06T10:34:55.159Z,4.80
2019-03-06T10:37:43.591Z,6.63
2019-03-06T10:40:25.896Z,4.57
2019-03-06T10:42:54.763Z,5.63
2019-03-06T10:45:24.223Z,3.83
2019-03-06T10:47:53.927Z,5.23
2019-03-06T10:53:41.311Z,6.17
2019-03-06T10:56:08.086Z,6.80
2019-03-06T10:58:37.664Z,6.80
2019-03-06T11:04:32.321Z,6.00
2019-03-06T11:07:01.944Z,6.67
2019-03-06T11:09:31.629Z,5.83
2019-03-06T11:12:00.990Z,7.20
2019-03-06T11:14:50.242Z,5.83
2019-03-06T11:17:19.811Z,5.73
2019-03-06T11:20:23.138Z,5.47
2019-03-06T11:25:54.823Z,5.10
2019-03-06T11:28:24.583Z,5.33
2019-03-06T11:36:20.569Z,9.03
2019-03-06T11:38:49.977Z,6.30
2019-03-06T11:41:19.460Z,6.50
2019-03-06T11:43:48.841Z,7.93
2019-03-06T11:46:39.363Z,5.17
2019-03-06T11:49:08.689Z,6.73
2019-03-06T11:51:38.059Z,4.97
2019-03-06T11:54:07.557Z,8.97
2019-03-06T11:56:37.167Z,5.33
2019-03-06T11:59:06.646Z,4.80
2019-03-06T12:04:31.016Z,5.03
2019-03-06T12:07:00.428Z,6.70
2019-03-06T12:09:49.285Z,9.20
2019-03-06T12:12:18.801Z,5.63
2019-03-06T12:17:29.392Z,5.67
2019-03-06T12:20:07.517Z,3.37
2019-03-06T12:22:48.087Z,4.93
2019-03-06T12:28:39.556Z,6.93
2019-03-06T12:31:09.769Z,6.07
2019-03-06T12:33:39.109Z,5.23
2019-03-06T12:36:08.727Z,5.40
2019-03-06T12:38:38.066Z,6.17
2019-03-06T12:41:07.549Z,5.20
2019-03-06T12:46:39.376Z,6.67
2019-03-06T12:49:10.730Z,6.80
2019-03-06T12:51:39.573Z,8.93
2019-03-06T12:54:09.040Z,10.17
2019-03-06T12:56:38.530Z,15.07
2019-03-06T12:59:07.974Z,10.10
2019-03-06T13:01:39.117Z,10.00
2019-03-06T13:04:26.600Z,9.97
2019-03-06T13:06:56.036Z,9.27
2019-03-06T13:09:25.384Z,10.10
2019-03-06T13:11:54.796Z,7.67
2019-03-06T13:14:44.062Z,9.73
2019-03-06T13:17:13.507Z,7.00
2019-03-06T13:19:42.857Z,6.10
2019-03-06T13:22:12.373Z,9.57
2019-03-06T13:25:01.649Z,8.33
2019-03-06T13:27:30.998Z,7.73
2019-03-06T13:33:03.059Z,6.63
2019-03-06T13:38:28.051Z,4.03
2019-03-06T13:40:57.399Z,4.90
2019-03-06T13:43:26.730Z,5.90
2019-03-06T13:45:56.064Z,5.27
2019-03-06T13:48:25.410Z,4.77
2019-03-06T13:50:54.953Z,4.80
2019-03-06T13:53:24.493Z,5.17
2019-03-06T13:55:53.809Z,6.13
2019-03-06T13:58:23.143Z,5.30
2019-03-06T14:00:52.549Z,5.90
2019-03-06T14:03:34.103Z,4.63
2019-03-06T14:06:03.331Z,4.90
2019-03-06T14:08:32.654Z,3.27
2019-03-06T14:11:02.121Z,3.37
2019-03-06T14:13:31.443Z,4.73
2019-03-06T14:16:01.108Z,5.17
2019-03-06T14:18:30.488Z,5.27
2019-03-06T14:20:59.824Z,4.40
2019-03-06T14:23:35.048Z,5.53
2019-03-06T14:26:18.673Z,6.63
2019-03-06T14:28:48.077Z,5.70
2019-03-06T14:31:17.532Z,5.83
2019-03-06T14:33:46.869Z,3.63
2019-03-06T14:36:16.213Z,3.83
2019-03-06T14:38:45.531Z,3.57
2019-03-06T14:41:14.880Z,3.80
2019-03-06T14:43:44.197Z,5.17
2019-03-06T14:46:16.563Z,4.47
2019-03-06T14:49:02.892Z,4.43
2019-03-06T14:51:32.247Z,3.67
2019-03-06T14:54:00.821Z,5.07
2019-03-06T14:56:30.278Z,6.17
2019-03-06T14:58:59.723Z,5.90
2019-03-06T15:01:29.196Z,7.07
2019-03-06T15:03:58.550Z,7.23
2019-03-06T15:06:27.933Z,5.60
2019-03-06T15:08:57.287Z,6.23
2019-03-06T15:11:33.180Z,5.00
2019-03-06T15:14:16.377Z,4.40
2019-03-06T15:16:45.843Z,6.80
2019-03-06T15:19:16.975Z,5.47
2019-03-06T15:21:46.317Z,5.30
2019-03-06T15:24:15.646Z,4.97
2019-03-06T15:26:44.264Z,7.20
2019-03-06T15:29:13.845Z,7.70
2019-03-06T15:31:43.496Z,7.47
2019-03-06T15:34:13.069Z,6.43
2019-03-06T15:36:42.412Z,8.13
2019-03-06T15:39:32.018Z,6.00
2019-03-06T15:42:03.918Z,5.70
2019-03-06T15:44:32.876Z,8.30
2019-03-06T15:47:02.290Z,5.13
2019-03-06T15:49:31.716Z,7.87
2019-03-06T15:52:01.188Z,3.70
2019-03-06T15:54:30.655Z,4.70
2019-03-06T15:57:00.111Z,5.93
2019-03-06T15:59:29.644Z,5.23
2019-03-06T16:01:59.087Z,7.03
2019-03-06T16:04:28.459Z,8.30
2019-03-06T16:06:57.914Z,6.23
2019-03-06T16:12:12.229Z,7.47
2019-03-06T16:14:59.825Z,9.10
2019-03-06T16:17:29.170Z,9.57
2019-03-06T16:20:18.685Z,14.50
2019-03-06T16:25:50.516Z,16.20
2019-03-06T16:28:19.860Z,15.07
2019-03-06T16:30:49.276Z,20.03
2019-03-06T16:33:18.720Z,33.97
2019-03-06T16:35:48.106Z,35.73
2019-03-06T16:38:17.648Z,38.63
2019-03-06T16:40:47.040Z,33.07
2019-03-06T16:46:19.563Z,27.23
2019-03-06T16:48:48.972Z,68.47
2019-03-06T16:51:18.399Z,93.70
2019-03-06T16:56:31.464Z,60.90
2019-03-06T16:59:01.119Z,63.90
2019-03-06T17:01:30.575Z,84.57
2019-03-06T17:04:00.159Z,96.47
2019-03-06T17:06:29.628Z,91.97
2019-03-06T17:12:04.835Z,105.37
2019-03-06T17:14:34.184Z,111.77
2019-03-06T17:17:03.717Z,117.00
2019-03-06T17:19:33.175Z,93.80
2019-03-06T17:22:02.651Z,103.87
2019-03-06T17:27:34.962Z,98.67
2019-03-06T17:36:10.606Z,61.57
2019-03-06T17:38:40.072Z,75.07
2019-03-06T17:41:09.598Z,90.90
2019-03-06T17:43:39.119Z,88.87
2019-03-06T17:46:08.549Z,91.33
2019-03-06T17:48:37.972Z,77.40
2019-03-06T17:54:09.655Z,67.90
2019-03-06T17:56:39.253Z,70.43
2019-03-06T17:59:08.741Z,68.13
2019-03-06T18:01:37.617Z,84.23
2019-03-06T18:07:08.451Z,90.07
2019-03-06T18:09:37.786Z,92.83
2019-03-06T18:12:07.171Z,94.03
2019-03-06T18:14:36.612Z,96.70
2019-03-06T18:17:05.970Z,98.53
2019-03-06T18:19:35.327Z,89.83
2019-03-06T18:25:09.713Z,101.17
2019-03-06T18:27:38.621Z,108.60
2019-03-06T18:30:10.471Z,108.50
2019-03-06T18:32:40.043Z,115.90
2019-03-06T18:38:11.912Z,110.93
2019-03-06T18:40:41.264Z,111.90
2019-03-06T18:43:10.706Z,106.50
2019-03-06T18:45:40.053Z,110.10
2019-03-06T18:48:09.389Z,96.40
2019-03-06T18:50:38.759Z,94.67
2019-03-06T18:53:08.259Z,95.93
2019-03-06T18:55:37.593Z,109.47
2019-03-06T18:58:06.932Z,99.37
2019-03-06T19:00:36.444Z,86.47
2019-03-06T19:03:05.974Z,82.53
2019-03-06T19:05:36.965Z,73.63
2019-03-06T19:08:31.234Z,61.20
2019-03-06T19:11:17.155Z,65.90
2019-03-06T19:14:24.794Z,60.80
2019-03-06T19:16:54.283Z,70.67
2019-03-06T19:19:23.822Z,74.53
2019-03-06T19:21:53.391Z,69.17
2019-03-06T19:24:23.140Z,73.80
2019-03-06T19:26:52.621Z,69.23
2019-03-06T19:29:22.072Z,74.90
2019-03-06T19:31:51.619Z,68.73
2019-03-06T19:34:21.153Z,70.53
2019-03-06T19:36:50.563Z,73.43
2019-03-06T19:39:39.894Z,70.23
2019-03-06T19:42:09.246Z,67.10
2019-03-06T19:44:38.658Z,70.77
2019-03-06T19:47:08.347Z,67.23
2019-03-06T19:49:57.523Z,65.50
2019-03-06T19:52:26.942Z,62.77
2019-03-06T19:54:56.358Z,58.67
2019-03-06T19:57:25.940Z,62.47
2019-03-06T19:59:55.447Z,65.93
2019-03-06T20:02:24.884Z,72.87
2019-03-06T20:04:54.247Z,69.47
2019-03-06T20:07:23.609Z,64.60
2019-03-06T20:09:52.967Z,67.17
2019-03-06T20:12:22.307Z,73.70
2019-03-06T20:14:51.632Z,69.30
2019-03-06T20:17:20.973Z,81.10
2019-03-06T20:19:50.339Z,82.40
2019-03-06T20:22:19.678Z,82.23
2019-03-06T20:24:49.012Z,79.13
2019-03-06T20:27:18.328Z,71.07
2019-03-06T20:29:47.694Z,85.43
2019-03-06T20:32:17.170Z,76.17
2019-03-06T20:34:46.526Z,72.53
2019-03-06T20:37:15.883Z,79.87
2019-03-06T20:39:45.322Z,81.60
2019-03-06T20:42:14.667Z,79.53
2019-03-06T20:44:44.021Z,66.80
2019-03-06T20:47:13.557Z,67.67
2019-03-06T20:49:42.896Z,58.33
2019-03-06T20:52:12.292Z,59.43
2019-03-06T20:54:41.677Z,58.57
2019-03-06T20:57:11.050Z,51.40
2019-03-06T20:59:51.698Z,52.53
2019-03-06T21:02:20.217Z,56.60
2019-03-06T21:07:35.603Z,42.83
2019-03-06T21:10:21.905Z,42.43
2019-03-06T21:15:53.319Z,49.13
2019-03-06T21:18:22.698Z,48.03
2019-03-06T21:20:52.090Z,48.83
2019-03-06T21:23:21.459Z,58.37
2019-03-06T21:25:50.841Z,54.07
2019-03-06T21:28:20.175Z,50.83
2019-03-06T21:30:49.521Z,43.63
2019-03-06T21:33:18.878Z,37.67
2019-03-06T21:35:48.283Z,34.17
2019-03-06T21:38:17.619Z,28.40
2019-03-06T21:40:46.983Z,31.17
2019-03-06T21:43:16.360Z,39.57
2019-03-06T21:45:45.715Z,35.83
2019-03-06T21:48:15.072Z,32.63
2019-03-06T21:50:44.420Z,33.40
2019-03-06T21:53:13.976Z,32.13
2019-03-06T21:55:43.325Z,31.87
2019-03-06T21:58:12.657Z,30.63
2019-03-06T22:00:42.004Z,26.20
2019-03-06T22:03:11.385Z,32.87
2019-03-06T22:05:40.734Z,28.50
2019-03-06T22:08:10.282Z,29.83
2019-03-06T22:10:39.627Z,30.77
2019-03-06T22:13:08.957Z,33.57
2019-03-06T22:15:38.322Z,36.10
2019-03-06T22:18:07.672Z,36.97
2019-03-06T22:20:37.015Z,38.83
2019-03-06T22:23:06.373Z,42.07
2019-03-06T22:25:35.722Z,39.83
2019-03-06T22:28:05.023Z,34.70
2019-03-06T22:30:34.371Z,30.30
2019-03-06T22:33:03.741Z,33.80
2019-03-06T22:35:33.165Z,32.93
2019-03-06T22:38:02.642Z,29.03
2019-03-06T22:40:31.993Z,25.90
2019-03-06T22:43:01.346Z,22.77
2019-03-06T22:45:30.709Z,20.13
2019-03-06T22:48:00.069Z,20.50
2019-03-06T22:50:29.390Z,17.00
2019-03-06T22:52:58.711Z,16.43
2019-03-06T22:55:28.058Z,20.50
2019-03-06T22:57:57.416Z,17.07
2019-03-06T23:01:05.487Z,16.07
2019-03-06T23:03:34.252Z,16.20
2019-03-06T23:12:11.560Z,19.67
2019-03-06T23:14:40.915Z,22.67
2019-03-06T23:17:10.319Z,23.20
2019-03-06T23:19:39.679Z,22.77
2019-03-06T23:22:09.049Z,25.63
2019-03-06T23:24:38.412Z,26.20
2019-03-06T23:27:07.963Z,24.73
2019-03-06T23:29:37.303Z,27.27
2019-03-06T23:32:06.660Z,24.93
2019-03-06T23:34:35.993Z,29.87
2019-03-06T23:37:05.343Z,25.97
2019-03-06T23:39:34.685Z,26.50
2019-03-06T23:42:16.299Z,26.13
2019-03-06T23:44:44.835Z,28.07
2019-03-06T23:47:14.172Z,26.53
2019-03-06T23:49:43.529Z,28.93
2019-03-06T23:52:26.968Z,24.97
2019-03-06T23:57:57.827Z,23.70
